Time;durP1;ratioP1;P1;durP2;ratioP2;P2;SDS_P1;SDS_P2;PMS_P1;PMS_P2;Temp;Humidity;BMP_temperature;BMP_pressure;BME280_temperature;BME280_humidity;BME280_pressure;Samples;Min_cycle;Max_cycle;Signal;HPM_P1;HPM_P2
2021/09/08 00:00:10;;;;;;;9.70;6.87;;;15.70;92.50;;;;;;5004760;28;20570;-67
2021/09/08 00:02:38;;;;;;;10.47;6.93;;;15.70;92.50;;;;;;5007402;28;20239;-68
2021/09/08 00:05:07;;;;;;;11.13;7.70;;;15.70;92.60;;;;;;5010357;28;20615;-68
2021/09/08 00:07:34;;;;;;;11.50;6.60;;;15.70;92.70;;;;;;4993366;28;20223;-67
2021/09/08 00:10:01;;;;;;;9.97;7.00;;;15.60;92.90;;;;;;5001237;28;20218;-68
2021/09/08 00:12:28;;;;;;;10.83;7.70;;;15.60;93.10;;;;;;5008299;28;20242;-68
2021/09/08 00:14:55;;;;;;;16.37;8.10;;;15.50;93.10;;;;;;5009144;28;20234;-67
2021/09/08 00:17:21;;;;;;;12.03;7.40;;;15.60;93.40;;;;;;4996698;28;20219;-67
2021/09/08 00:19:50;;;;;;;14.17;7.23;;;15.50;93.50;;;;;;5010733;28;20208;-67
2021/09/08 00:22:16;;;;;;;10.20;7.30;;;15.50;93.70;;;;;;5010023;28;20210;-68
2021/09/08 00:24:43;;;;;;;9.57;7.13;;;15.50;93.80;;;;;;5002738;28;20199;-67
2021/09/08 00:27:10;;;;;;;10.33;6.90;;;15.50;93.80;;;;;;4999140;28;20212;-67
2021/09/08 00:29:37;;;;;;;11.03;7.67;;;15.40;93.70;;;;;;5001820;28;20763;-67
2021/09/08 00:32:04;;;;;;;10.37;7.33;;;15.40;93.60;;;;;;5008149;28;20210;-67
2021/09/08 00:34:31;;;;;;;12.83;7.77;;;15.40;93.70;;;;;;4994707;28;20231;-67
2021/09/08 00:36:59;;;;;;;11.57;7.60;;;15.40;93.30;;;;;;5001883;28;20708;-67
2021/09/08 00:39:26;;;;;;;11.47;7.30;;;15.50;93.30;;;;;;4996058;28;20215;-68
2021/09/08 00:41:53;;;;;;;11.57;7.30;;;15.40;93.40;;;;;;5006387;28;20744;-67
2021/09/08 00:44:20;;;;;;;12.27;8.03;;;15.40;93.50;;;;;;4990857;28;20259;-66
2021/09/08 00:46:46;;;;;;;11.83;7.77;;;15.50;93.50;;;;;;4990739;28;20204;-67
2021/09/08 00:49:14;;;;;;;8.73;6.90;;;15.40;93.60;;;;;;5005983;28;20203;-70
2021/09/08 00:51:41;;;;;;;13.40;7.27;;;15.40;93.60;;;;;;5008100;28;20579;-68
2021/09/08 00:54:13;;;;;;;11.43;7.67;;;15.40;93.60;;;;;;4994055;28;20792;-68
2021/09/08 00:56:41;;;;;;;12.37;7.37;;;15.40;93.60;;;;;;4994658;28;20212;-67
2021/09/08 00:59:08;;;;;;;11.83;7.87;;;15.50;93.80;;;;;;5008908;28;20208;-68
2021/09/08 01:01:35;;;;;;;12.83;7.90;;;15.30;93.80;;;;;;5003325;28;20227;-67
2021/09/08 01:04:02;;;;;;;12.50;7.53;;;15.40;94.10;;;;;;4997705;28;20211;-66
2021/09/08 01:06:29;;;;;;;11.57;7.67;;;15.30;94.30;;;;;;5004504;28;20239;-67
2021/09/08 01:08:56;;;;;;;13.70;7.60;;;15.30;94.40;;;;;;4997444;28;20210;-68
2021/09/08 01:11:24;;;;;;;9.90;7.27;;;15.30;94.60;;;;;;5004701;28;20553;-67
2021/09/08 01:13:51;;;;;;;10.67;7.30;;;15.20;94.70;;;;;;5013768;28;20230;-66
2021/09/08 01:16:17;;;;;;;11.27;7.13;;;15.20;95.00;;;;;;5010225;28;20696;-68
2021/09/08 01:18:45;;;;;;;12.20;7.63;;;15.10;95.30;;;;;;5012682;28;20207;-68
2021/09/08 01:21:12;;;;;;;13.00;7.67;;;15.10;95.50;;;;;;5003944;28;20200;-68
2021/09/08 01:23:41;;;;;;;11.20;8.30;;;15.10;95.50;;;;;;5006372;28;20213;-67
2021/09/08 01:26:09;;;;;;;9.93;7.23;;;15.10;95.60;;;;;;5010462;28;20641;-67
2021/09/08 01:28:36;;;;;;;12.37;8.10;;;15.20;95.80;;;;;;5002077;28;20314;-67
2021/09/08 01:31:03;;;;;;;11.60;7.57;;;15.10;95.90;;;;;;5011977;28;20203;-67
2021/09/08 01:33:30;;;;;;;13.50;8.00;;;15.00;96.10;;;;;;5005622;28;20681;-67
2021/09/08 01:35:57;;;;;;;13.30;8.90;;;15.00;96.30;;;;;;4998681;28;20227;-68
2021/09/08 01:38:23;;;;;;;13.17;7.97;;;15.00;96.30;;;;;;5003271;28;20601;-67
2021/09/08 01:40:51;;;;;;;15.20;8.30;;;15.00;96.40;;;;;;5000667;28;20214;-68
2021/09/08 01:43:22;;;;;;;11.87;8.67;;;15.00;96.50;;;;;;5001494;28;20212;-67
2021/09/08 01:45:49;;;;;;;14.47;9.43;;;15.00;96.60;;;;;;4993474;28;20270;-67
2021/09/08 01:48:16;;;;;;;13.63;9.57;;;14.90;96.60;;;;;;4996917;28;20200;-67
2021/09/08 01:50:42;;;;;;;16.43;9.30;;;14.90;96.60;;;;;;5008927;28;20223;-67
2021/09/08 01:53:09;;;;;;;14.07;8.80;;;14.90;96.60;;;;;;5001526;28;20216;-66
2021/09/08 01:55:36;;;;;;;14.20;8.43;;;14.90;96.60;;;;;;4993483;28;20224;-66
2021/09/08 01:58:04;;;;;;;17.07;8.80;;;14.80;96.50;;;;;;4993086;28;20211;-66
2021/09/08 02:00:31;;;;;;;11.97;8.33;;;14.80;96.50;;;;;;5006023;28;20211;-66
2021/09/08 02:02:58;;;;;;;13.27;8.03;;;14.80;96.50;;;;;;4993496;28;20208;-67
2021/09/08 02:05:25;;;;;;;13.53;8.57;;;14.80;96.50;;;;;;4992891;28;20261;-67
2021/09/08 02:07:52;;;;;;;11.33;7.60;;;14.80;96.50;;;;;;5006609;28;20219;-67
2021/09/08 02:10:19;;;;;;;11.47;8.23;;;14.80;96.50;;;;;;5007865;28;20214;-66
2021/09/08 02:12:46;;;;;;;13.90;8.40;;;14.80;96.70;;;;;;4997527;28;20204;-67
2021/09/08 02:15:14;;;;;;;11.40;7.80;;;14.80;96.90;;;;;;5021442;28;20238;-66
2021/09/08 02:17:42;;;;;;;14.33;8.50;;;14.80;97.20;;;;;;4995863;28;20214;-67
2021/09/08 02:20:10;;;;;;;12.50;8.33;;;14.70;97.40;;;;;;5007836;28;20676;-67
2021/09/08 02:22:36;;;;;;;13.93;8.30;;;14.70;97.60;;;;;;4996990;28;20631;-66
2021/09/08 02:25:03;;;;;;;12.23;8.37;;;14.70;97.80;;;;;;4993478;28;20204;-67
2021/09/08 02:27:30;;;;;;;11.30;8.17;;;14.70;98.00;;;;;;4992830;28;20212;-67
2021/09/08 02:29:57;;;;;;;14.10;9.07;;;14.60;98.20;;;;;;5003219;28;20211;-67
2021/09/08 02:32:25;;;;;;;12.77;8.40;;;14.60;98.40;;;;;;5004752;28;20207;-67
2021/09/08 02:34:52;;;;;;;11.97;7.80;;;14.60;98.60;;;;;;4995256;28;20215;-67
2021/09/08 02:37:19;;;;;;;14.70;8.40;;;14.60;98.80;;;;;;5002987;28;20219;-67
2021/09/08 02:39:45;;;;;;;10.47;7.50;;;14.60;99.00;;;;;;5002907;28;20211;-67
2021/09/08 02:42:12;;;;;;;11.70;8.67;;;14.50;99.10;;;;;;4992722;28;20219;-67
2021/09/08 02:44:39;;;;;;;13.50;8.70;;;14.50;99.40;;;;;;4997405;28;20207;-67
2021/09/08 02:47:06;;;;;;;13.43;8.90;;;14.50;99.60;;;;;;4995430;28;20204;-66
2021/09/08 02:49:34;;;;;;;17.03;9.10;;;14.50;99.80;;;;;;5001262;28;20218;-67
2021/09/08 02:52:00;;;;;;;12.70;8.77;;;14.40;99.90;;;;;;4992426;28;20676;-67
2021/09/08 02:54:27;;;;;;;11.13;8.63;;;14.40;99.90;;;;;;4997418;28;20231;-67
2021/09/08 02:56:54;;;;;;;12.93;9.10;;;14.40;99.90;;;;;;4997783;28;20235;-67
2021/09/08 02:59:21;;;;;;;12.97;9.50;;;14.40;99.90;;;;;;4998401;28;20223;-66
2021/09/08 03:01:48;;;;;;;13.43;9.20;;;14.40;99.90;;;;;;4992453;28;20235;-66
2021/09/08 03:04:14;;;;;;;11.57;8.63;;;14.30;99.90;;;;;;4996817;28;20203;-67
2021/09/08 03:06:43;;;;;;;12.97;8.97;;;14.30;99.90;;;;;;5000993;28;20350;-66
2021/09/08 03:09:09;;;;;;;13.13;9.17;;;14.30;99.90;;;;;;4994266;28;20243;-67
2021/09/08 03:11:36;;;;;;;15.23;9.27;;;14.30;99.90;;;;;;4998136;28;20208;-66
2021/09/08 03:14:03;;;;;;;16.30;9.70;;;14.30;99.90;;;;;;5003732;28;20218;-67
2021/09/08 03:16:30;;;;;;;17.03;10.13;;;14.20;99.90;;;;;;5002472;28;20704;-67
2021/09/08 03:18:56;;;;;;;17.10;10.77;;;14.20;99.90;;;;;;4995749;28;20215;-67
2021/09/08 03:21:23;;;;;;;15.30;10.27;;;14.20;99.90;;;;;;4998240;28;20624;-66
2021/09/08 03:23:51;;;;;;;13.83;10.37;;;14.20;99.90;;;;;;4999361;28;20263;-66
2021/09/08 03:26:18;;;;;;;15.47;10.17;;;14.20;99.90;;;;;;5005093;28;20215;-67
2021/09/08 03:28:45;;;;;;;14.10;9.93;;;14.20;99.90;;;;;;4999137;28;20210;-67
2021/09/08 03:31:12;;;;;;;14.87;10.27;;;14.20;99.90;;;;;;4995120;28;20319;-67
2021/09/08 03:33:39;;;;;;;16.70;10.23;;;14.10;99.90;;;;;;4992526;28;20215;-66
2021/09/08 03:36:06;;;;;;;17.00;10.13;;;14.10;99.90;;;;;;4992661;28;20236;-67
2021/09/08 03:38:32;;;;;;;17.63;11.13;;;14.10;99.90;;;;;;4999977;28;20684;-66
2021/09/08 03:41:00;;;;;;;16.93;11.17;;;14.10;99.90;;;;;;4997817;28;20214;-67
2021/09/08 03:43:27;;;;;;;18.80;11.23;;;14.10;99.90;;;;;;5008646;28;20576;-66
2021/09/08 03:45:54;;;;;;;16.37;11.37;;;14.10;99.90;;;;;;4999777;28;20200;-67
2021/09/08 03:48:23;;;;;;;14.80;10.30;;;14.00;99.90;;;;;;4991920;28;20669;-68
2021/09/08 03:50:50;;;;;;;15.73;10.13;;;14.00;99.90;;;;;;5006441;28;20211;-67
2021/09/08 03:53:16;;;;;;;18.03;11.50;;;14.00;99.90;;;;;;4999935;28;20212;-67
2021/09/08 03:55:43;;;;;;;16.03;11.00;;;14.00;99.90;;;;;;5015597;28;20220;-67
2021/09/08 03:58:11;;;;;;;16.80;11.20;;;14.00;99.90;;;;;;5005143;28;20677;-67
2021/09/08 04:00:38;;;;;;;15.17;10.63;;;14.00;99.90;;;;;;5005349;28;20687;-67
2021/09/08 04:03:05;;;;;;;17.40;10.63;;;13.90;99.90;;;;;;4991449;28;20216;-66
2021/09/08 04:05:32;;;;;;;17.50;10.37;;;14.00;99.90;;;;;;5003765;28;20239;-66
2021/09/08 04:07:58;;;;;;;20.10;10.77;;;13.90;99.90;;;;;;5007196;28;20289;-67
2021/09/08 04:10:25;;;;;;;17.53;11.27;;;13.90;99.90;;;;;;5010356;28;20571;-67
2021/09/08 04:12:52;;;;;;;16.87;11.43;;;13.90;99.90;;;;;;4997308;28;20219;-66
2021/09/08 04:15:21;;;;;;;18.30;11.70;;;13.90;99.90;;;;;;5010300;28;20211;-66
2021/09/08 04:17:48;;;;;;;21.60;12.33;;;13.90;99.90;;;;;;5011126;28;20207;-68
2021/09/08 04:20:14;;;;;;;14.33;10.93;;;13.90;99.90;;;;;;5001099;28;20215;-66
2021/09/08 04:22:42;;;;;;;16.83;10.73;;;13.90;99.90;;;;;;5005298;28;20579;-67
2021/09/08 04:25:09;;;;;;;16.37;11.13;;;13.90;99.90;;;;;;4994474;28;20215;-67
2021/09/08 04:27:36;;;;;;;14.03;10.67;;;13.90;99.90;;;;;;4996268;28;20583;-68
2021/09/08 04:30:03;;;;;;;17.20;10.63;;;13.90;99.90;;;;;;4998748;28;20204;-67
2021/09/08 04:32:31;;;;;;;19.53;11.43;;;13.90;99.90;;;;;;5009036;28;20294;-67
2021/09/08 04:34:58;;;;;;;15.87;10.97;;;14.00;99.90;;;;;;4999265;28;20211;-66
2021/09/08 04:37:25;;;;;;;17.90;11.67;;;14.00;99.90;;;;;;5001784;28;20229;-66
2021/09/08 04:39:52;;;;;;;14.63;10.13;;;14.00;99.90;;;;;;5008892;28;20207;-66
2021/09/08 04:42:18;;;;;;;13.63;10.57;;;14.00;99.90;;;;;;4995013;28;20215;-67
2021/09/08 04:44:45;;;;;;;16.57;11.17;;;14.10;99.90;;;;;;5000538;28;20203;-67
2021/09/08 04:47:12;;;;;;;19.37;11.53;;;14.20;99.90;;;;;;5005020;28;20219;-67
2021/09/08 04:49:40;;;;;;;19.73;12.17;;;14.20;99.90;;;;;;5004469;28;20222;-66
2021/09/08 04:52:07;;;;;;;15.40;11.37;;;14.20;99.90;;;;;;5008658;28;20219;-67
2021/09/08 04:54:33;;;;;;;14.93;10.40;;;14.30;99.90;;;;;;5004222;28;20644;-66
2021/09/08 04:57:00;;;;;;;17.20;11.33;;;14.40;99.90;;;;;;4999692;28;20231;-66
2021/09/08 04:59:27;;;;;;;18.60;10.53;;;14.40;99.90;;;;;;5006815;28;20657;-68
2021/09/08 05:01:54;;;;;;;16.93;10.73;;;14.50;99.90;;;;;;5000607;28;20243;-67
2021/09/08 05:04:21;;;;;;;16.50;10.90;;;14.50;99.90;;;;;;4999557;28;20222;-66
2021/09/08 05:06:50;;;;;;;17.83;11.83;;;14.60;99.90;;;;;;5002680;28;20235;-67
2021/09/08 05:09:17;;;;;;;20.50;12.20;;;14.60;99.90;;;;;;5008368;28;20200;-66
2021/09/08 05:11:43;;;;;;;16.73;10.40;;;14.70;99.90;;;;;;4994795;28;20223;-67
2021/09/08 05:14:10;;;;;;;17.97;10.80;;;14.80;99.90;;;;;;5001292;28;20207;-66
2021/09/08 05:16:37;;;;;;;20.43;11.13;;;14.80;99.90;;;;;;5011885;28;20231;-68
2021/09/08 05:19:04;;;;;;;16.43;10.10;;;14.90;99.90;;;;;;5013335;28;20211;-67
2021/09/08 05:21:31;;;;;;;16.27;10.33;;;14.90;99.90;;;;;;4994688;28;20208;-67
2021/09/08 05:23:59;;;;;;;17.27;11.13;;;15.00;99.90;;;;;;4997737;28;20292;-66
2021/09/08 05:26:26;;;;;;;18.93;10.73;;;15.00;99.90;;;;;;5008914;28;20203;-67
2021/09/08 05:28:52;;;;;;;18.47;9.87;;;15.00;99.90;;;;;;5005493;28;20701;-67
2021/09/08 05:31:19;;;;;;;13.77;10.60;;;15.10;99.90;;;;;;5009568;28;20712;-67
2021/09/08 05:33:46;;;;;;;13.23;9.23;;;15.10;99.90;;;;;;4996020;28;20795;-67
2021/09/08 05:36:15;;;;;;;15.73;10.67;;;15.10;99.90;;;;;;5006976;28;20224;-68
2021/09/08 05:38:42;;;;;;;14.93;10.40;;;15.20;99.90;;;;;;5001758;28;20215;-67
2021/09/08 05:41:10;;;;;;;18.83;10.63;;;15.20;99.90;;;;;;5005301;28;20216;-68
2021/09/08 05:43:37;;;;;;;17.87;10.77;;;15.20;99.90;;;;;;4999311;28;20242;-68
2021/09/08 05:46:04;;;;;;;17.30;11.47;;;15.30;99.90;;;;;;5008163;28;20556;-68
2021/09/08 05:48:32;;;;;;;20.20;10.37;;;15.30;99.90;;;;;;4995630;28;20292;-67
2021/09/08 05:50:59;;;;;;;15.73;10.80;;;15.40;99.90;;;;;;5001459;28;20665;-67
2021/09/08 05:53:25;;;;;;;15.40;10.83;;;15.40;99.90;;;;;;5008415;28;20199;-67
2021/09/08 05:55:54;;;;;;;18.30;10.63;;;15.40;99.90;;;;;;5009661;28;20203;-68
2021/09/08 05:58:23;;;;;;;15.23;10.80;;;15.40;99.90;;;;;;5000568;28;20231;-67
2021/09/08 06:00:49;;;;;;;21.87;11.60;;;15.50;99.90;;;;;;4998190;28;20211;-67
2021/09/08 06:03:16;;;;;;;15.10;10.77;;;15.50;99.90;;;;;;5000625;28;20226;-67
2021/09/08 06:05:43;;;;;;;19.57;11.47;;;15.50;99.90;;;;;;5011748;28;20247;-66
2021/09/08 06:08:10;;;;;;;15.53;10.90;;;15.50;99.90;;;;;;5010087;28;20203;-68
2021/09/08 06:10:36;;;;;;;26.67;12.47;;;15.50;99.90;;;;;;5012830;28;20222;-67
2021/09/08 06:13:04;;;;;;;16.07;11.00;;;15.60;99.90;;;;;;5012140;28;20231;-67
2021/09/08 06:15:34;;;;;;;18.00;12.43;;;15.60;99.90;;;;;;5001629;28;20207;-67
2021/09/08 06:18:02;;;;;;;19.00;11.77;;;15.70;99.90;;;;;;5011754;28;20217;-67
2021/09/08 06:20:29;;;;;;;21.63;12.70;;;15.80;99.90;;;;;;5012164;28;20207;-68
2021/09/08 06:22:56;;;;;;;17.93;11.90;;;16.00;99.90;;;;;;5011849;28;20203;-67
2021/09/08 06:25:23;;;;;;;21.40;11.73;;;16.00;99.90;;;;;;5012630;28;20572;-68
2021/09/08 06:27:49;;;;;;;18.13;12.20;;;16.10;99.90;;;;;;5011518;28;20402;-67
2021/09/08 06:30:16;;;;;;;17.03;11.17;;;16.10;99.90;;;;;;5011545;28;20211;-68
2021/09/08 06:32:44;;;;;;;20.77;11.80;;;16.20;99.90;;;;;;5013815;28;20278;-68
2021/09/08 06:35:11;;;;;;;19.13;12.43;;;16.30;99.90;;;;;;5013513;28;20219;-66
2021/09/08 06:37:38;;;;;;;18.23;11.60;;;16.30;99.90;;;;;;5008463;28;20672;-67
2021/09/08 06:40:06;;;;;;;18.40;11.77;;;16.40;99.90;;;;;;5012656;28;20207;-67
2021/09/08 06:42:33;;;;;;;19.20;12.80;;;16.40;99.90;;;;;;5015235;28;20211;-65
2021/09/08 06:45:00;;;;;;;25.23;12.13;;;16.50;99.90;;;;;;5011940;28;20215;-68
2021/09/08 06:47:26;;;;;;;18.30;11.27;;;16.70;99.90;;;;;;5012254;28;20656;-67
2021/09/08 06:49:54;;;;;;;19.27;11.43;;;16.60;99.90;;;;;;5005674;28;20203;-69
2021/09/08 06:52:21;;;;;;;21.90;12.43;;;16.80;99.90;;;;;;5006704;28;20247;-68
2021/09/08 06:54:48;;;;;;;17.77;12.13;;;16.90;99.90;;;;;;4994378;28;20212;-68
2021/09/08 06:57:16;;;;;;;20.03;12.23;;;17.10;99.90;;;;;;4994426;28;20551;-69
2021/09/08 06:59:43;;;;;;;28.20;12.57;;;17.20;99.90;;;;;;5008097;28;20211;-67
2021/09/08 07:02:11;;;;;;;17.90;12.17;;;17.30;99.90;;;;;;4996761;28;20208;-68
2021/09/08 07:04:38;;;;;;;21.03;10.97;;;17.50;99.90;;;;;;5010979;28;20227;-68
2021/09/08 07:07:06;;;;;;;19.63;11.93;;;17.50;99.90;;;;;;5010175;28;20243;-68
2021/09/08 07:09:33;;;;;;;17.53;12.60;;;17.60;99.80;;;;;;5002252;28;20216;-68
2021/09/08 07:12:00;;;;;;;18.77;11.73;;;17.70;99.50;;;;;;5004850;28;20207;-66
2021/09/08 07:14:27;;;;;;;17.73;12.00;;;17.80;99.60;;;;;;5018069;28;20586;-67
2021/09/08 07:16:54;;;;;;;24.30;12.70;;;17.90;99.40;;;;;;5007138;28;20239;-68
2021/09/08 07:19:21;;;;;;;20.30;12.57;;;18.00;99.20;;;;;;4997974;28;20645;-68
2021/09/08 07:21:47;;;;;;;22.30;11.97;;;18.20;99.00;;;;;;4999628;28;20240;-66
2021/09/08 07:24:15;;;;;;;26.02;12.65;;;18.30;98.40;;;;;;4996391;28;20222;-67
2021/09/08 07:26:42;;;;;;;20.17;11.83;;;18.50;98.00;;;;;;5001435;28;20211;-68
2021/09/08 07:29:09;;;;;;;17.90;11.35;;;18.60;97.60;;;;;;5005239;28;20211;-67
2021/09/08 07:31:36;;;;;;;17.38;11.80;;;18.60;97.30;;;;;;5005051;28;20245;-68
2021/09/08 07:34:03;;;;;;;19.85;11.07;;;18.50;96.90;;;;;;5000330;28;20780;-70
2021/09/08 07:36:29;;;;;;;19.02;11.57;;;18.90;97.00;;;;;;5006801;28;20227;-68
2021/09/08 07:38:57;;;;;;;19.63;11.68;;;19.00;96.40;;;;;;5004601;28;20636;-68
2021/09/08 07:41:25;;;;;;;18.92;11.10;;;19.20;96.10;;;;;;5003047;28;20212;-68
2021/09/08 07:43:52;;;;;;;14.60;10.07;;;19.40;95.80;;;;;;5001626;28;20218;-67
2021/09/08 07:46:18;;;;;;;16.27;10.60;;;19.70;95.30;;;;;;5005947;28;20208;-68
2021/09/08 07:48:45;;;;;;;15.35;10.15;;;19.80;95.30;;;;;;5010511;28;20567;-67
2021/09/08 07:51:12;;;;;;;14.48;10.18;;;20.00;95.00;;;;;;5011856;28;20211;-68
2021/09/08 07:53:39;;;;;;;17.77;11.85;;;20.30;94.40;;;;;;5010944;28;20273;-68
2021/09/08 07:56:06;;;;;;;17.70;12.50;;;20.50;94.10;;;;;;5012710;28;20207;-66
2021/09/08 07:58:34;;;;;;;15.80;11.52;;;20.60;94.10;;;;;;5011555;28;20258;-68
2021/09/08 08:01:01;;;;;;;19.10;11.38;;;20.80;94.40;;;;;;5012007;28;20214;-67
2021/09/08 08:03:27;;;;;;;17.10;11.05;;;20.90;94.00;;;;;;5008262;28;20247;-67
2021/09/08 08:05:54;;;;;;;18.63;12.13;;;21.10;93.80;;;;;;5011269;28;20278;-68
2021/09/08 08:08:21;;;;;;;17.98;12.20;;;21.20;93.40;;;;;;5006556;28;20214;-69
2021/09/08 08:10:48;;;;;;;18.60;11.80;;;21.30;93.10;;;;;;4999376;28;20207;-69
2021/09/08 08:13:15;;;;;;;17.95;12.25;;;21.40;93.10;;;;;;5005111;28;20218;-68
2021/09/08 08:15:46;;;;;;;22.33;12.40;;;21.30;92.80;;;;;;5011413;28;20656;-69
2021/09/08 08:18:13;;;;;;;23.77;13.20;;;21.80;92.60;;;;;;5007434;28;20226;-68
2021/09/08 08:20:40;;;;;;;22.90;13.18;;;21.90;92.40;;;;;;5010221;28;20241;-67
2021/09/08 08:23:07;;;;;;;17.65;12.60;;;22.00;92.10;;;;;;5008300;28;20574;-68
2021/09/08 08:25:34;;;;;;;22.70;13.30;;;22.20;92.00;;;;;;5011140;28;20692;-68
2021/09/08 08:28:04;;;;;;;21.30;13.68;;;22.30;91.70;;;;;;5011716;28;20290;-68
2021/09/08 08:30:31;;;;;;;20.33;12.45;;;22.50;91.50;;;;;;5011879;28;20298;-68
2021/09/08 08:32:59;;;;;;;18.73;13.00;;;22.60;91.20;;;;;;5009749;28;20207;-68
2021/09/08 08:35:26;;;;;;;19.67;12.10;;;22.70;90.80;;;;;;5010567;28;20294;-68
2021/09/08 08:37:53;;;;;;;18.25;12.07;;;22.80;90.50;;;;;;5011097;28;20226;-69
2021/09/08 08:40:21;;;;;;;17.92;12.57;;;23.00;90.50;;;;;;4998530;28;20210;-69
2021/09/08 08:42:48;;;;;;;19.35;11.27;;;23.10;89.40;;;;;;5007821;28;20215;-69
2021/09/08 08:45:16;;;;;;;17.05;11.85;;;23.40;87.50;;;;;;5009798;28;20291;-68
2021/09/08 08:47:43;;;;;;;15.45;11.25;;;23.40;88.60;;;;;;5010495;28;20211;-69
2021/09/08 08:50:13;;;;;;;14.75;9.27;;;23.50;86.90;;;;;;5011122;28;20215;-68
2021/09/08 08:52:41;;;;;;;15.55;9.95;;;23.60;86.10;;;;;;5003577;28;20224;-68
2021/09/08 08:55:09;;;;;;;15.20;9.82;;;23.80;84.20;;;;;;4995212;28;20649;-68
2021/09/08 08:57:36;;;;;;;17.50;10.95;;;24.00;83.50;;;;;;4995417;28;20230;-69
2021/09/08 09:00:05;;;;;;;14.45;10.05;;;24.10;82.30;;;;;;5006812;28;20207;-69
2021/09/08 09:02:33;;;;;;;15.65;10.02;;;24.30;81.50;;;;;;4997549;28;20208;-68
2021/09/08 09:05:02;;;;;;;15.80;9.77;;;24.50;80.10;;;;;;5009100;28;20317;-66
2021/09/08 09:07:32;;;;;;;16.52;9.50;;;24.70;79.80;;;;;;5005426;28;20219;-67
2021/09/08 09:10:04;;;;;;;17.55;9.73;;;24.90;80.10;;;;;;4999311;28;20223;-68
2021/09/08 09:12:34;;;;;;;15.43;9.52;;;25.20;80.30;;;;;;5010860;28;20513;-66
2021/09/08 09:15:04;;;;;;;13.35;7.40;;;26.20;79.20;;;;;;5005209;28;20203;-68
2021/09/08 09:17:33;;;;;;;12.57;8.70;;;27.30;72.30;;;;;;5000481;28;20249;-70
2021/09/08 09:20:04;;;;;;;20.17;10.02;;;28.00;68.60;;;;;;5010361;28;20203;-68
2021/09/08 09:22:40;;;;;;;12.68;10.50;;;28.40;67.00;;;;;;5010928;28;20211;-67
2021/09/08 09:25:10;;;;;;;17.85;10.30;;;28.90;66.20;;;;;;5004858;28;20203;-67
2021/09/08 09:27:39;;;;;;;14.70;9.00;;;29.30;64.10;;;;;;5009361;28;20203;-67
2021/09/08 09:30:09;;;;;;;12.75;9.27;;;29.50;62.90;;;;;;5005778;28;20231;-68
2021/09/08 09:32:42;;;;;;;15.73;8.82;;;29.70;62.20;;;;;;5011454;28;20298;-67
2021/09/08 09:35:11;;;;;;;11.63;8.02;;;29.90;60.00;;;;;;5005418;28;20652;-67
2021/09/08 09:37:44;;;;;;;14.07;8.80;;;30.00;59.40;;;;;;5003884;28;20699;-66
2021/09/08 09:40:12;;;;;;;12.35;9.20;;;30.00;59.60;;;;;;4993806;28;20204;-66
2021/09/08 09:42:41;;;;;;;14.40;9.48;;;30.30;58.10;;;;;;5009420;28;20695;-66
2021/09/08 09:45:10;;;;;;;22.85;10.50;;;30.10;58.20;;;;;;5006528;28;20212;-66
2021/09/08 09:47:39;;;;;;;15.50;9.63;;;29.80;58.00;;;;;;4994002;28;20584;-66
2021/09/08 09:50:07;;;;;;;15.70;10.05;;;29.50;58.90;;;;;;4993709;28;20777;-66
2021/09/08 09:52:35;;;;;;;13.57;9.20;;;29.60;60.20;;;;;;5011535;28;20222;-66
2021/09/08 09:55:04;;;;;;;12.52;9.07;;;29.90;59.00;;;;;;5003085;28;20776;-66
2021/09/08 09:57:31;;;;;;;15.10;9.18;;;30.30;58.70;;;;;;4997561;28;20242;-67
2021/09/08 09:59:59;;;;;;;12.48;9.07;;;30.80;57.60;;;;;;5000822;28;20222;-68
2021/09/08 10:02:26;;;;;;;12.95;9.32;;;31.10;56.80;;;;;;4998776;28;20744;-68
2021/09/08 10:04:53;;;;;;;14.13;8.77;;;30.90;56.10;;;;;;5008775;28;20680;-69
2021/09/08 10:07:22;;;;;;;14.98;9.40;;;30.60;55.80;;;;;;5008236;28;20279;-69
2021/09/08 10:09:52;;;;;;;12.35;8.13;;;30.60;56.10;;;;;;5000357;28;20277;-69
2021/09/08 10:12:25;;;;;;;14.27;8.82;;;30.50;56.50;;;;;;5007499;28;20203;-67
2021/09/08 10:14:53;;;;;;;11.65;8.43;;;30.60;55.90;;;;;;5012681;28;20563;-68
2021/09/08 10:17:20;;;;;;;12.15;8.43;;;30.70;54.90;;;;;;5012588;28;20220;-69
2021/09/08 10:19:49;;;;;;;13.38;8.85;;;30.60;54.10;;;;;;5011616;28;20584;-68
2021/09/08 10:22:17;;;;;;;13.57;11.00;;;30.30;54.70;;;;;;5011582;28;20203;-67
2021/09/08 10:24:45;;;;;;;11.75;9.25;;;30.20;55.00;;;;;;5011936;28;20235;-68
2021/09/08 10:27:23;;;;;;;9.98;7.63;;;30.20;55.20;;;;;;5012259;28;20199;-69
2021/09/08 10:29:52;;;;;;;10.27;7.90;;;30.30;55.10;;;;;;5011364;28;20216;-68
2021/09/08 10:32:20;;;;;;;12.32;8.20;;;30.40;54.10;;;;;;5017294;28;20211;-67
2021/09/08 10:34:49;;;;;;;12.85;8.00;;;30.30;53.40;;;;;;5013212;28;20234;-67
2021/09/08 10:37:17;;;;;;;14.07;8.20;;;30.10;54.10;;;;;;5008453;28;20291;-68
2021/09/08 10:39:43;;;;;;;14.85;8.27;;;30.10;54.50;;;;;;5010587;28;20211;-67
2021/09/08 10:42:10;;;;;;;10.23;7.60;;;30.00;54.60;;;;;;5010589;28;20207;-67
2021/09/08 10:44:46;;;;;;;11.20;7.00;;;30.20;54.60;;;;;;5010094;28;20234;-68
2021/09/08 10:47:15;;;;;;;10.48;7.47;;;30.60;54.30;;;;;;5008444;28;20207;-67
2021/09/08 10:49:52;;;;;;;12.20;7.05;;;31.00;53.80;;;;;;5007164;28;20207;-66
2021/09/08 10:52:45;;;;;;;10.35;7.50;;;31.30;53.00;;;;;;5011340;28;20214;-69
2021/09/08 10:55:23;;;;;;;11.82;7.30;;;31.10;53.10;;;;;;5011386;28;20667;-68
2021/09/08 10:57:55;;;;;;;10.35;7.68;;;31.40;53.00;;;;;;5010368;28;20211;-67
2021/09/08 11:00:27;;;;;;;9.10;7.45;;;31.40;52.40;;;;;;5011374;28;20230;-68
2021/09/08 11:02:54;;;;;;;12.95;7.28;;;31.50;51.80;;;;;;5011605;28;20206;-68
2021/09/08 11:05:21;;;;;;;10.55;7.53;;;31.50;51.00;;;;;;5009778;28;20250;-68
2021/09/08 11:07:49;;;;;;;8.77;7.35;;;31.40;51.10;;;;;;5002952;28;20199;-68
2021/09/08 11:10:27;;;;;;;8.57;7.10;;;31.30;51.70;;;;;;5009752;28;20660;-67
2021/09/08 11:12:55;;;;;;;10.25;8.10;;;31.20;51.90;;;;;;5009928;28;20577;-66
2021/09/08 11:15:33;;;;;;;10.52;7.57;;;31.20;51.90;;;;;;5011619;28;20638;-66
2021/09/08 11:18:01;;;;;;;12.82;7.57;;;31.30;51.20;;;;;;5010679;28;20305;-67
2021/09/08 11:20:27;;;;;;;13.52;7.22;;;31.30;50.90;;;;;;5008251;28;20563;-67
2021/09/08 11:23:05;;;;;;;11.40;7.68;;;31.50;50.70;;;;;;5011385;28;20667;-66
2021/09/08 11:25:34;;;;;;;13.13;7.68;;;31.50;51.30;;;;;;5011115;28;20230;-67
2021/09/08 11:28:01;;;;;;;9.93;7.57;;;31.50;50.50;;;;;;5008730;28;20215;-67
2021/09/08 11:30:34;;;;;;;11.32;7.13;;;31.60;50.30;;;;;;5008091;28;20207;-66
2021/09/08 11:33:03;;;;;;;10.90;7.43;;;31.60;49.80;;;;;;5007816;28;20568;-67
2021/09/08 11:35:35;;;;;;;10.55;7.85;;;31.60;50.60;;;;;;5010661;28;20674;-68
2021/09/08 11:38:02;;;;;;;13.90;9.20;;;31.60;51.00;;;;;;5008346;28;20231;-68
2021/09/08 11:40:29;;;;;;;11.45;7.45;;;31.50;51.10;;;;;;5009530;28;20207;-67
2021/09/08 11:42:56;;;;;;;13.07;7.35;;;30.90;51.20;;;;;;5008299;28;20213;-67
2021/09/08 11:45:27;;;;;;;12.63;7.30;;;31.60;51.50;;;;;;5010769;28;20204;-68
2021/09/08 11:47:55;;;;;;;10.85;7.43;;;31.80;51.10;;;;;;5010008;28;20215;-68
2021/09/08 11:50:22;;;;;;;12.43;8.73;;;31.90;50.30;;;;;;5010232;28;20238;-67
2021/09/08 11:52:54;;;;;;;9.00;7.53;;;31.80;49.70;;;;;;5007928;28;20711;-67
2021/09/08 11:55:25;;;;;;;11.00;7.18;;;31.70;50.80;;;;;;5010371;28;20199;-67
2021/09/08 11:57:52;;;;;;;12.15;7.57;;;31.80;50.70;;;;;;5007769;28;20235;-67
2021/09/08 12:00:19;;;;;;;11.63;7.65;;;31.90;50.20;;;;;;5010786;28;20207;-67
2021/09/08 12:02:46;;;;;;;9.55;7.43;;;32.10;50.00;;;;;;5011276;28;20653;-67
2021/09/08 12:05:21;;;;;;;11.85;8.48;;;32.30;49.90;;;;;;5007305;28;20231;-67
2021/09/08 12:07:48;;;;;;;12.65;8.63;;;32.50;49.40;;;;;;5006051;28;20690;-67
2021/09/08 12:10:15;;;;;;;11.73;7.30;;;32.40;49.10;;;;;;5008503;28;20215;-67
2021/09/08 12:12:41;;;;;;;12.00;7.28;;;32.30;49.70;;;;;;5010837;28;20207;-67
2021/09/08 12:15:09;;;;;;;14.68;8.05;;;32.10;50.10;;;;;;5004808;28;20575;-68
2021/09/08 12:17:36;;;;;;;9.40;8.30;;;32.00;50.10;;;;;;5004908;28;20211;-68
2021/09/08 12:20:07;;;;;;;13.65;7.90;;;31.90;50.20;;;;;;5009102;28;20249;-68
2021/09/08 12:22:36;;;;;;;14.75;8.00;;;31.60;50.50;;;;;;5010949;28;20231;-67
2021/09/08 12:25:07;;;;;;;14.07;7.43;;;31.50;51.10;;;;;;5011031;28;20590;-70
2021/09/08 12:27:37;;;;;;;11.93;7.72;;;31.60;51.10;;;;;;5007159;28;20203;-67
2021/09/08 12:30:10;;;;;;;14.40;7.10;;;31.80;50.80;;;;;;5009125;28;20203;-66
2021/09/08 12:32:51;;;;;;;12.60;7.32;;;32.00;50.70;;;;;;5010041;28;20715;-67
2021/09/08 12:35:35;;;;;;;13.93;7.50;;;32.10;50.00;;;;;;5010955;28;20711;-67